createdAt,value
2023-01-20T00:01:46.660Z,4.87
2023-01-20T00:04:15.836Z,5.43
2023-01-20T00:06:44.280Z,5.40
2023-01-20T00:09:15.730Z,5.73
2023-01-20T00:11:44.757Z,5.33
2023-01-20T00:14:13.252Z,5.83
2023-01-20T00:16:41.713Z,5.07
2023-01-20T00:19:14.296Z,7.17
2023-01-20T00:21:42.994Z,5.97
2023-01-20T00:24:11.711Z,5.43
2023-01-20T00:26:40.275Z,5.53
2023-01-20T00:29:08.718Z,5.77
2023-01-20T00:31:37.303Z,6.93
2023-01-20T00:34:06.398Z,6.23
2023-01-20T00:36:36.254Z,5.90
2023-01-20T00:39:05.055Z,6.40
2023-01-20T00:41:33.535Z,4.40
2023-01-20T00:44:01.998Z,5.10
2023-01-20T00:46:30.487Z,5.43
2023-01-20T00:48:59.026Z,5.23
2023-01-20T00:51:27.596Z,5.43
2023-01-20T00:53:57.460Z,5.63
2023-01-20T00:56:25.962Z,5.60
2023-01-20T00:58:55.392Z,6.13
2023-01-20T01:01:23.927Z,6.70
2023-01-20T01:03:54.744Z,5.67
2023-01-20T01:06:23.823Z,6.80
2023-01-20T01:08:53.123Z,6.17
2023-01-20T01:11:23.027Z,6.17
2023-01-20T01:13:51.514Z,5.20
2023-01-20T01:16:19.991Z,5.93
2023-01-20T01:18:48.537Z,6.20
2023-01-20T01:21:17.841Z,6.20
2023-01-20T01:23:46.543Z,7.10
2023-01-20T01:26:15.055Z,5.67
2023-01-20T01:28:44.951Z,5.53
2023-01-20T01:31:13.453Z,5.20
2023-01-20T01:33:41.995Z,5.90
2023-01-20T01:36:12.169Z,5.60
2023-01-20T01:38:40.639Z,5.57
2023-01-20T01:41:09.163Z,6.17
2023-01-20T01:43:38.621Z,5.80
2023-01-20T01:46:08.818Z,6.60
2023-01-20T01:48:39.241Z,4.70
2023-01-20T01:51:09.571Z,6.13
2023-01-20T01:53:41.228Z,5.37
2023-01-20T01:56:10.521Z,4.93
2023-01-20T01:58:40.144Z,5.13
2023-01-20T02:01:10.065Z,4.97
2023-01-20T02:03:41.929Z,5.20
2023-01-20T02:06:11.759Z,4.37
2023-01-20T02:08:40.279Z,5.73
2023-01-20T02:11:08.749Z,4.20
2023-01-20T02:13:37.335Z,4.50
2023-01-20T02:16:11.444Z,4.40
2023-01-20T02:18:46.376Z,4.93
2023-01-20T02:21:27.756Z,5.93
2023-01-20T02:24:04.769Z,5.73
2023-01-20T02:26:41.875Z,4.33
2023-01-20T02:29:37.355Z,5.87
2023-01-20T02:32:16.787Z,5.57
2023-01-20T02:34:48.035Z,4.93
2023-01-20T02:37:17.470Z,4.93
2023-01-20T02:39:50.560Z,4.20
2023-01-20T02:42:22.000Z,5.00
2023-01-20T02:44:54.616Z,4.50
2023-01-20T02:47:26.425Z,4.13
2023-01-20T02:49:56.708Z,4.57
2023-01-20T02:52:27.633Z,4.10
2023-01-20T02:54:58.363Z,3.80
2023-01-20T02:57:30.108Z,4.27
2023-01-20T03:00:01.949Z,3.90
2023-01-20T03:02:33.028Z,4.43
2023-01-20T03:05:05.788Z,4.00
2023-01-20T03:07:35.755Z,4.10
2023-01-20T03:10:06.804Z,4.43
2023-01-20T03:12:38.068Z,4.07
2023-01-20T03:15:07.038Z,4.17
2023-01-20T03:17:37.191Z,4.70
2023-01-20T03:20:05.991Z,4.13
2023-01-20T03:22:34.453Z,3.27
2023-01-20T03:25:03.076Z,4.03
2023-01-20T03:27:31.490Z,4.37
2023-01-20T03:29:59.949Z,4.87
2023-01-20T03:32:28.921Z,3.70
2023-01-20T03:34:58.982Z,4.00
2023-01-20T03:37:27.446Z,4.43
2023-01-20T03:39:56.527Z,5.30
2023-01-20T03:42:27.110Z,4.90
2023-01-20T03:45:01.678Z,4.23
2023-01-20T03:47:38.081Z,3.70
2023-01-20T03:50:11.358Z,3.60
2023-01-20T03:52:47.597Z,4.93
2023-01-20T03:55:18.271Z,7.60
2023-01-20T03:57:50.685Z,3.73
2023-01-20T04:00:21.908Z,3.30
2023-01-20T04:02:51.500Z,4.37
2023-01-20T04:05:21.826Z,3.23
2023-01-20T04:07:51.172Z,3.37
2023-01-20T04:10:20.054Z,3.67
2023-01-20T04:12:48.495Z,3.17
2023-01-20T04:15:17.349Z,4.30
2023-01-20T04:17:46.222Z,5.43
2023-01-20T04:20:15.464Z,2.93
2023-01-20T04:22:50.080Z,3.50
2023-01-20T04:25:22.252Z,3.57
2023-01-20T04:27:50.748Z,3.50
2023-01-20T04:30:19.434Z,3.27
2023-01-20T04:32:48.179Z,4.17
2023-01-20T04:35:17.723Z,4.30
2023-01-20T04:37:47.711Z,3.50
2023-01-20T04:40:16.266Z,3.40
2023-01-20T04:42:44.927Z,3.50
2023-01-20T04:45:17.226Z,4.30
2023-01-20T04:47:46.079Z,3.13
2023-01-20T04:50:15.296Z,4.03
2023-01-20T04:52:44.127Z,3.27
2023-01-20T04:55:14.540Z,3.20
2023-01-20T04:57:43.192Z,3.00
2023-01-20T05:00:18.550Z,3.30
2023-01-20T05:02:47.093Z,3.10
2023-01-20T05:05:15.946Z,3.20
2023-01-20T05:07:44.687Z,3.30
2023-01-20T05:10:14.793Z,2.73
2023-01-20T05:12:43.387Z,3.73
2023-01-20T05:15:12.430Z,4.23
2023-01-20T05:17:41.001Z,3.70
2023-01-20T05:20:10.160Z,3.93
2023-01-20T05:22:38.708Z,3.57
2023-01-20T05:25:08.026Z,3.23
2023-01-20T05:27:38.138Z,5.17
2023-01-20T05:30:06.940Z,3.97
2023-01-20T05:32:35.384Z,3.20
2023-01-20T05:35:03.870Z,3.37
2023-01-20T05:37:32.357Z,3.60
2023-01-20T05:40:00.854Z,3.47
2023-01-20T05:42:29.325Z,4.00
2023-01-20T05:44:59.223Z,3.33
2023-01-20T05:47:27.708Z,3.57
2023-01-20T05:49:56.219Z,3.30
2023-01-20T05:52:24.931Z,3.67
2023-01-20T05:54:53.406Z,3.33
2023-01-20T05:57:21.839Z,2.90
2023-01-20T05:59:51.540Z,3.77
2023-01-20T06:02:21.796Z,3.40
2023-01-20T06:04:50.514Z,4.20
2023-01-20T06:07:19.024Z,3.47
2023-01-20T06:09:47.508Z,3.63
2023-01-20T06:12:15.959Z,3.40
2023-01-20T06:14:44.421Z,3.80
2023-01-20T06:17:12.922Z,3.20
2023-01-20T06:19:42.778Z,3.03
2023-01-20T06:22:14.934Z,4.10
2023-01-20T06:24:43.539Z,3.30
2023-01-20T06:27:13.650Z,3.13
2023-01-20T06:29:42.316Z,3.27
2023-01-20T06:32:10.817Z,3.20
2023-01-20T06:34:39.307Z,3.30
2023-01-20T06:37:09.217Z,3.67
2023-01-20T06:39:37.730Z,3.53
2023-01-20T06:42:06.299Z,3.13
2023-01-20T06:44:35.072Z,3.60
2023-01-20T06:47:03.516Z,3.47
2023-01-20T06:49:33.645Z,4.07
2023-01-20T06:52:02.279Z,3.10
2023-01-20T06:54:32.122Z,4.23
2023-01-20T06:57:00.555Z,3.97
2023-01-20T06:59:29.344Z,5.17
2023-01-20T07:01:57.863Z,3.50
2023-01-20T07:04:26.339Z,4.07
2023-01-20T07:06:54.792Z,3.60
2023-01-20T07:09:23.336Z,5.67
2023-01-20T07:11:53.188Z,3.90
2023-01-20T07:14:21.669Z,5.63
2023-01-20T07:16:50.314Z,4.13
2023-01-20T07:19:18.916Z,4.13
2023-01-20T07:21:47.379Z,7.50
2023-01-20T07:24:15.840Z,4.47
2023-01-20T07:26:44.310Z,4.77
2023-01-20T07:29:15.559Z,4.23
2023-01-20T07:31:45.859Z,4.83
2023-01-20T07:34:14.430Z,4.40
2023-01-20T07:36:42.908Z,5.23
2023-01-20T07:39:13.034Z,4.13
2023-01-20T07:41:42.218Z,7.30
2023-01-20T07:44:10.869Z,4.10
2023-01-20T07:46:40.721Z,5.73
2023-01-20T07:49:12.042Z,3.67
2023-01-20T07:51:40.952Z,4.57
2023-01-20T07:54:11.842Z,5.00
2023-01-20T07:56:40.307Z,8.33
2023-01-20T07:59:08.788Z,5.33
2023-01-20T08:01:37.319Z,5.87
2023-01-20T08:04:07.184Z,5.73
2023-01-20T08:06:35.785Z,6.30
2023-01-20T08:09:04.783Z,5.20
2023-01-20T08:11:33.298Z,6.33
2023-01-20T08:14:01.785Z,4.43
2023-01-20T08:16:30.346Z,4.13
2023-01-20T08:18:58.837Z,5.90
2023-01-20T08:21:29.341Z,6.87
2023-01-20T08:23:58.178Z,4.70
2023-01-20T08:26:27.899Z,4.70
2023-01-20T08:28:56.993Z,3.73
2023-01-20T08:31:26.254Z,5.97
2023-01-20T08:34:02.288Z,4.57
2023-01-20T08:36:33.523Z,4.27
2023-01-20T08:39:03.309Z,4.87
2023-01-20T08:41:33.100Z,5.47
2023-01-20T08:44:02.586Z,5.50
2023-01-20T08:46:31.147Z,4.07
2023-01-20T08:48:59.859Z,7.97
2023-01-20T08:51:29.385Z,5.07
2023-01-20T08:53:59.643Z,6.97
2023-01-20T08:56:28.201Z,5.17
2023-01-20T08:58:57.531Z,4.57
2023-01-20T09:01:27.301Z,4.87
2023-01-20T09:04:05.358Z,4.13
2023-01-20T09:06:39.521Z,4.97
2023-01-20T09:09:09.588Z,4.93
2023-01-20T09:11:38.449Z,4.40
2023-01-20T09:14:07.040Z,5.73
2023-01-20T09:16:35.577Z,5.20
2023-01-20T09:19:04.368Z,4.57
2023-01-20T09:21:32.874Z,5.77
2023-01-20T09:24:01.592Z,5.23
2023-01-20T09:26:38.847Z,6.37
2023-01-20T09:29:10.358Z,5.30
2023-01-20T09:31:39.140Z,6.27
2023-01-20T09:34:07.766Z,8.63
2023-01-20T09:36:36.234Z,5.30
2023-01-20T09:39:22.380Z,4.47
2023-01-20T09:42:09.766Z,5.33
2023-01-20T09:44:47.609Z,5.87
2023-01-20T09:47:24.446Z,6.70
2023-01-20T09:50:15.841Z,5.90
2023-01-20T09:53:03.863Z,4.07
2023-01-20T09:55:34.402Z,6.57
2023-01-20T09:58:12.121Z,6.87
2023-01-20T10:00:41.807Z,6.57
2023-01-20T10:03:13.351Z,5.10
2023-01-20T10:05:42.600Z,6.67
2023-01-20T10:08:15.367Z,6.57
2023-01-20T10:10:47.714Z,7.27
2023-01-20T10:13:20.661Z,6.63
2023-01-20T10:15:50.916Z,6.50
2023-01-20T10:18:22.067Z,6.93
2023-01-20T10:20:52.524Z,7.67
2023-01-20T10:23:26.187Z,8.33
2023-01-20T10:25:57.800Z,8.00
2023-01-20T10:28:29.187Z,7.77
2023-01-20T10:30:59.351Z,7.80
2023-01-20T10:33:29.915Z,8.00
2023-01-20T10:35:58.889Z,7.33
2023-01-20T10:38:31.885Z,8.83
2023-01-20T10:41:04.576Z,6.67
2023-01-20T10:43:34.524Z,7.37
2023-01-20T10:46:10.952Z,7.97
2023-01-20T10:48:57.466Z,6.73
2023-01-20T10:51:31.141Z,5.97
2023-01-20T10:54:05.820Z,5.77
2023-01-20T10:56:37.364Z,6.80
2023-01-20T10:59:10.144Z,4.50
2023-01-20T11:01:38.724Z,8.90
2023-01-20T11:04:07.801Z,6.00
2023-01-20T11:06:36.298Z,5.93
2023-01-20T11:09:13.599Z,5.57
2023-01-20T11:11:42.135Z,5.50
2023-01-20T11:14:12.089Z,5.70
2023-01-20T11:16:42.303Z,5.23
2023-01-20T11:19:11.904Z,5.43
2023-01-20T11:21:41.530Z,5.20
2023-01-20T11:24:24.816Z,5.27
2023-01-20T11:26:53.298Z,6.83
2023-01-20T11:29:29.267Z,4.43
2023-01-20T11:31:59.646Z,5.33
2023-01-20T11:34:29.326Z,5.13
2023-01-20T11:37:12.712Z,4.00
2023-01-20T11:39:44.497Z,6.07
2023-01-20T11:42:15.746Z,4.37
2023-01-20T11:44:46.133Z,5.90
2023-01-20T11:47:24.688Z,5.13
2023-01-20T11:50:11.685Z,5.67
2023-01-20T11:52:41.123Z,5.80
2023-01-20T11:55:10.488Z,7.63
2023-01-20T11:57:39.279Z,5.87
2023-01-20T12:00:30.080Z,8.33
2023-01-20T12:02:59.481Z,5.60
2023-01-20T12:05:31.159Z,5.20
2023-01-20T12:07:59.637Z,6.17
2023-01-20T12:10:30.054Z,5.30
2023-01-20T12:13:00.690Z,7.20
2023-01-20T12:15:33.368Z,5.63
2023-01-20T12:18:03.281Z,10.13
2023-01-20T12:20:45.606Z,5.13
2023-01-20T12:23:22.247Z,6.20
2023-01-20T12:25:53.324Z,6.03
2023-01-20T12:28:24.996Z,7.87
2023-01-20T12:31:02.145Z,5.80
2023-01-20T12:33:32.056Z,6.07
2023-01-20T12:36:16.823Z,4.03
2023-01-20T12:38:51.019Z,8.23
2023-01-20T12:41:28.906Z,7.63
2023-01-20T12:44:03.182Z,8.53
2023-01-20T12:46:37.475Z,4.30
2023-01-20T12:49:15.442Z,7.60
2023-01-20T12:51:51.040Z,6.00
2023-01-20T12:54:47.715Z,7.60
2023-01-20T12:57:21.080Z,7.13
2023-01-20T12:59:55.042Z,7.20
2023-01-20T13:02:37.698Z,6.03
2023-01-20T13:05:20.763Z,5.13
2023-01-20T13:07:56.057Z,7.47
2023-01-20T13:10:35.100Z,5.43
2023-01-20T13:13:06.030Z,4.43
2023-01-20T13:15:37.626Z,7.57
2023-01-20T13:18:17.676Z,9.17
2023-01-20T13:20:47.455Z,5.30
2023-01-20T13:23:17.217Z,11.33
2023-01-20T13:25:47.141Z,11.50
2023-01-20T13:28:18.217Z,8.70
2023-01-20T13:30:48.211Z,6.90
2023-01-20T13:33:19.885Z,11.40
2023-01-20T13:35:50.400Z,11.47
2023-01-20T13:38:27.916Z,10.17
2023-01-20T13:40:58.692Z,8.37
2023-01-20T13:43:54.121Z,12.73
2023-01-20T13:46:40.964Z,7.03
2023-01-20T13:49:24.039Z,4.10
2023-01-20T13:51:52.562Z,9.67
2023-01-20T13:54:38.719Z,5.43
2023-01-20T13:57:28.027Z,8.70
2023-01-20T13:59:56.619Z,7.17
2023-01-20T14:02:28.823Z,7.83
2023-01-20T14:04:59.167Z,6.30
2023-01-20T14:07:28.286Z,8.40
2023-01-20T14:09:57.529Z,6.40
2023-01-20T14:12:26.059Z,10.80
2023-01-20T14:14:54.636Z,6.20
2023-01-20T14:17:24.391Z,11.97
2023-01-20T14:19:54.452Z,5.57
2023-01-20T14:22:25.220Z,4.60
2023-01-20T14:24:54.100Z,7.77
2023-01-20T14:27:23.820Z,4.30
2023-01-20T14:29:53.239Z,7.43
2023-01-20T14:32:24.008Z,6.30
2023-01-20T14:34:52.659Z,6.93
2023-01-20T14:37:26.217Z,7.07
2023-01-20T14:39:56.957Z,13.90
2023-01-20T14:42:25.798Z,12.27
2023-01-20T14:44:55.595Z,7.00
2023-01-20T14:47:25.570Z,7.73
2023-01-20T14:49:55.091Z,11.80
2023-01-20T14:52:28.760Z,8.23
2023-01-20T14:54:57.471Z,6.27
2023-01-20T14:57:27.437Z,10.30
2023-01-20T15:00:16.827Z,7.70
2023-01-20T15:02:47.991Z,7.10
2023-01-20T15:05:23.092Z,10.97
2023-01-20T15:08:05.057Z,6.73
2023-01-20T15:10:33.706Z,6.07
2023-01-20T15:13:02.419Z,7.73
2023-01-20T15:15:31.539Z,8.10
2023-01-20T15:18:07.264Z,8.57
2023-01-20T15:20:36.482Z,9.30
2023-01-20T15:23:14.054Z,9.80
2023-01-20T15:25:42.524Z,8.03
2023-01-20T15:28:21.108Z,8.57
2023-01-20T15:30:49.618Z,6.50
2023-01-20T15:33:18.137Z,5.33
2023-01-20T15:35:46.648Z,6.30
2023-01-20T15:38:16.505Z,7.40
2023-01-20T15:40:44.989Z,5.23
2023-01-20T15:43:16.762Z,7.63
2023-01-20T15:45:45.457Z,4.33
2023-01-20T15:48:16.239Z,8.27
2023-01-20T15:50:44.808Z,5.70
2023-01-20T15:53:13.987Z,6.70
2023-01-20T15:55:47.630Z,6.07
2023-01-20T15:58:23.969Z,7.17
2023-01-20T16:00:52.824Z,6.50
2023-01-20T16:03:21.341Z,6.13
2023-01-20T16:05:50.696Z,8.60
2023-01-20T16:08:19.779Z,5.43
2023-01-20T16:10:49.701Z,5.50
2023-01-20T16:13:18.140Z,7.57
2023-01-20T16:15:46.625Z,5.57
2023-01-20T16:18:15.795Z,4.30
2023-01-20T16:20:44.732Z,5.40
2023-01-20T16:23:13.562Z,7.00
2023-01-20T16:25:42.464Z,5.20
2023-01-20T16:28:14.873Z,4.00
2023-01-20T16:30:43.845Z,5.50
2023-01-20T16:33:19.260Z,5.20
2023-01-20T16:35:47.764Z,5.07
2023-01-20T16:38:16.897Z,5.93
2023-01-20T16:40:47.910Z,3.80
2023-01-20T16:43:18.243Z,5.83
2023-01-20T16:45:50.561Z,5.13
2023-01-20T16:48:19.037Z,4.23
2023-01-20T16:50:49.986Z,4.70
2023-01-20T16:53:19.092Z,4.23
2023-01-20T16:55:48.494Z,5.13
2023-01-20T16:58:18.449Z,7.07
2023-01-20T17:00:46.921Z,5.03
2023-01-20T17:03:15.385Z,4.87
2023-01-20T17:05:43.843Z,6.33
2023-01-20T17:08:12.339Z,4.97
2023-01-20T17:10:40.784Z,4.87
2023-01-20T17:13:09.223Z,4.00
2023-01-20T17:15:42.603Z,4.10
2023-01-20T17:18:11.444Z,4.87
2023-01-20T17:20:39.858Z,4.43
2023-01-20T17:23:08.315Z,6.13
2023-01-20T17:25:36.739Z,4.37
2023-01-20T17:28:05.220Z,6.63
2023-01-20T17:30:33.967Z,4.83
2023-01-20T17:33:03.831Z,4.80
2023-01-20T17:35:32.293Z,6.93
2023-01-20T17:38:00.756Z,5.33
2023-01-20T17:40:29.231Z,5.37
2023-01-20T17:42:57.666Z,5.20
2023-01-20T17:45:26.162Z,5.10
2023-01-20T17:47:54.638Z,7.20
2023-01-20T17:50:24.641Z,4.57
2023-01-20T17:52:53.144Z,5.07
2023-01-20T17:55:21.630Z,7.37
2023-01-20T17:57:51.868Z,4.73
2023-01-20T18:00:20.835Z,6.40
2023-01-20T18:02:49.948Z,6.77
2023-01-20T18:05:18.393Z,5.73
2023-01-20T18:07:48.341Z,6.20
2023-01-20T18:10:17.039Z,6.20
2023-01-20T18:12:45.741Z,5.60
2023-01-20T18:15:14.250Z,5.83
2023-01-20T18:17:43.479Z,7.20
2023-01-20T18:20:12.760Z,5.10
2023-01-20T18:22:41.239Z,7.00
2023-01-20T18:25:11.683Z,5.77
2023-01-20T18:27:40.222Z,5.53
2023-01-20T18:30:09.264Z,6.73
2023-01-20T18:32:37.735Z,6.00
2023-01-20T18:35:06.734Z,7.03
2023-01-20T18:37:35.221Z,6.70
2023-01-20T18:40:04.660Z,5.87
2023-01-20T18:42:34.556Z,5.67
2023-01-20T18:45:03.043Z,5.90
2023-01-20T18:47:31.490Z,7.37
2023-01-20T18:50:00.281Z,7.17
2023-01-20T18:52:28.753Z,5.93
2023-01-20T18:54:57.188Z,8.10
2023-01-20T18:57:25.731Z,4.77
2023-01-20T18:59:55.615Z,6.23
2023-01-20T19:02:24.136Z,4.83
2023-01-20T19:04:52.610Z,5.00
2023-01-20T19:07:21.327Z,6.60
2023-01-20T19:09:49.771Z,6.20
2023-01-20T19:12:18.228Z,5.60
2023-01-20T19:14:46.728Z,6.87
2023-01-20T19:17:16.588Z,6.13
2023-01-20T19:19:49.554Z,8.10
2023-01-20T19:22:17.979Z,6.97
2023-01-20T19:24:46.429Z,6.67
2023-01-20T19:27:14.896Z,10.77
2023-01-20T19:29:43.324Z,8.00
2023-01-20T19:32:11.791Z,6.07
2023-01-20T19:34:43.719Z,7.47
2023-01-20T19:37:12.164Z,6.50
2023-01-20T19:39:40.649Z,7.87
2023-01-20T19:42:09.412Z,6.60
2023-01-20T19:44:37.861Z,7.60
2023-01-20T19:47:06.319Z,7.13
2023-01-20T19:49:34.792Z,9.60
2023-01-20T19:52:04.714Z,9.10
2023-01-20T19:54:33.650Z,7.77
2023-01-20T19:57:02.196Z,9.07
2023-01-20T19:59:30.667Z,8.60
2023-01-20T20:01:59.155Z,7.40
2023-01-20T20:04:27.745Z,8.90
2023-01-20T20:06:56.190Z,8.50
2023-01-20T20:09:26.983Z,8.30
2023-01-20T20:11:56.156Z,9.97
2023-01-20T20:14:27.270Z,9.23
2023-01-20T20:16:55.707Z,8.57
2023-01-20T20:19:24.219Z,8.67
2023-01-20T20:21:53.847Z,11.27
2023-01-20T20:24:22.326Z,9.87
2023-01-20T20:26:52.243Z,7.57
2023-01-20T20:29:20.877Z,9.17
2023-01-20T20:31:49.549Z,8.77
2023-01-20T20:34:18.754Z,9.23
2023-01-20T20:36:47.395Z,10.00
2023-01-20T20:39:16.510Z,9.20
2023-01-20T20:41:45.220Z,9.87
2023-01-20T20:44:15.256Z,7.93
2023-01-20T20:46:44.556Z,9.00
2023-01-20T20:49:15.192Z,8.40
2023-01-20T20:51:44.882Z,8.53
2023-01-20T20:54:16.807Z,9.37
2023-01-20T20:56:45.334Z,10.60
2023-01-20T20:59:15.392Z,9.23
2023-01-20T21:01:44.079Z,9.37
2023-01-20T21:04:12.563Z,8.33
2023-01-20T21:06:41.074Z,8.57
2023-01-20T21:09:09.585Z,9.13
2023-01-20T21:11:38.663Z,9.27
2023-01-20T21:14:07.650Z,9.37
2023-01-20T21:16:37.967Z,9.20
2023-01-20T21:19:06.448Z,11.30
2023-01-20T21:21:34.974Z,8.80
2023-01-20T21:24:03.446Z,8.67
2023-01-20T21:26:31.898Z,10.03
2023-01-20T21:29:02.183Z,8.43
2023-01-20T21:31:31.933Z,10.53
2023-01-20T21:34:02.466Z,9.07
2023-01-20T21:36:31.751Z,9.13
2023-01-20T21:39:00.690Z,9.43
2023-01-20T21:41:29.198Z,8.30
2023-01-20T21:44:15.394Z,7.77
2023-01-20T21:46:43.921Z,7.20
2023-01-20T21:49:31.465Z,8.87
2023-01-20T21:52:17.376Z,7.90
2023-01-20T21:54:45.981Z,8.60
2023-01-20T21:57:15.822Z,7.17
2023-01-20T21:59:45.708Z,7.83
2023-01-20T22:02:14.337Z,8.23
2023-01-20T22:04:46.203Z,10.17
2023-01-20T22:07:14.751Z,8.07
2023-01-20T22:09:43.446Z,8.17
2023-01-20T22:12:12.175Z,9.70
2023-01-20T22:14:41.012Z,8.97
2023-01-20T22:17:10.034Z,7.77
2023-01-20T22:19:39.034Z,8.63
2023-01-20T22:22:09.017Z,10.30
2023-01-20T22:24:37.495Z,11.13
2023-01-20T22:27:05.963Z,9.47
2023-01-20T22:29:34.474Z,9.07
2023-01-20T22:32:04.263Z,9.27
2023-01-20T22:34:32.774Z,7.87
2023-01-20T22:37:01.686Z,7.00
2023-01-20T22:39:31.597Z,7.97
2023-01-20T22:42:00.142Z,7.83
2023-01-20T22:44:28.582Z,10.30
2023-01-20T22:46:57.083Z,6.80
2023-01-20T22:49:25.824Z,7.30
2023-01-20T22:51:56.490Z,7.97
2023-01-20T22:54:25.323Z,6.83
2023-01-20T22:56:55.183Z,5.93
2023-01-20T22:59:23.647Z,5.17
2023-01-20T23:01:52.163Z,9.10
2023-01-20T23:04:20.647Z,6.80
2023-01-20T23:06:49.123Z,6.30
2023-01-20T23:09:17.589Z,6.73
2023-01-20T23:11:46.088Z,7.27
2023-01-20T23:14:15.939Z,5.93
2023-01-20T23:16:44.761Z,7.43
2023-01-20T23:19:13.767Z,6.80
2023-01-20T23:21:42.232Z,6.70
2023-01-20T23:24:10.725Z,5.50
2023-01-20T23:26:39.144Z,6.40
2023-01-20T23:29:07.624Z,6.60
2023-01-20T23:31:37.665Z,6.93
2023-01-20T23:34:06.106Z,6.37
2023-01-20T23:36:34.582Z,6.23
2023-01-20T23:39:03.053Z,5.93
2023-01-20T23:41:31.525Z,7.10
2023-01-20T23:43:59.980Z,5.80
2023-01-20T23:46:28.481Z,7.17
2023-01-20T23:48:58.321Z,6.83
2023-01-20T23:51:26.922Z,6.57
2023-01-20T23:53:55.397Z,6.90
2023-01-20T23:56:24.711Z,5.30
2023-01-20T23:58:53.672Z,9.40
